Terminal Aerodrome Forecast
Issued by NWS

Home | Current Version | Previous Version | Text Only | Print | Product List | Glossary Off
Versions: 1 2 3 4 5 6 7 8 9 10 11 12 13 14 15 16 17 18 19 20 21 22 23 24 25 26 27 28

000
FTUS43 KLOT 220301 AAA
TAFDPA
TAF AMD
KDPA 220301Z 2203/2224 03010KT P6SM OVC250
     FM221200 06008KT P6SM BKN025 OVC060
     FM221700 07013KT P6SM OVC020=

USA.gov is the U.S. government's official web portal to all federal, state and local government web resources and services.